Time;durP1;ratioP1;P1;durP2;ratioP2;P2;SDS_P1;SDS_P2;PMS_P1;PMS_P2;Temp;Humidity;BMP_temperature;BMP_pressure;BME280_temperature;BME280_humidity;BME280_pressure;Samples;Min_cycle;Max_cycle;Signal;HPM_P1;HPM_P2
2021/05/07 08:06:05;;;;;;;22.77;8.07;;;10.30;99.90;;;;;;12134917;27;20864;-80
2021/05/07 08:11:53;;;;;;;17.65;7.72;;;11.10;99.90;;;;;;12097048;28;20510;-81
2021/05/07 08:17:40;;;;;;;18.50;7.72;;;11.40;99.90;;;;;;12095007;28;20059;-79
2021/05/07 08:23:27;;;;;;;24.40;7.93;;;11.70;99.90;;;;;;12121781;27;20047;-79
2021/05/07 08:29:14;;;;;;;17.38;7.03;;;12.10;99.90;;;;;;12189599;27;20143;-81
2021/05/07 08:35:00;;;;;;;10.82;5.35;;;12.20;99.90;;;;;;12179922;27;20052;-82
2021/05/07 08:40:47;;;;;;;12.82;5.47;;;12.10;99.90;;;;;;12169322;27;20055;-82
2021/05/07 08:46:35;;;;;;;16.08;5.30;;;12.40;99.90;;;;;;12176430;28;20106;-83
2021/05/07 08:52:22;;;;;;;13.32;5.47;;;12.30;99.90;;;;;;12118863;27;20051;-80
2021/05/07 08:58:10;;;;;;;24.75;13.60;;;12.40;99.90;;;;;;12132861;28;20573;-76
2021/05/07 09:03:56;;;;;;;13.23;4.53;;;12.30;99.90;;;;;;12142957;28;20726;-77
2021/05/07 09:09:49;;;;;;;12.02;4.97;;;12.60;99.90;;;;;;12164136;27;20047;-77
2021/05/07 09:15:41;;;;;;;8.20;4.45;;;12.70;99.90;;;;;;12122688;28;20058;-76
2021/05/07 09:21:28;;;;;;;7.18;3.30;;;12.80;99.90;;;;;;12132407;28;20048;-76
2021/05/07 09:27:21;;;;;;;13.05;4.00;;;12.80;99.90;;;;;;12143702;28;20509;-76
2021/05/07 09:33:11;;;;;;;7.20;2.83;;;12.50;97.10;;;;;;12137464;28;20043;-75
2021/05/07 09:38:59;;;;;;;8.02;3.10;;;12.80;95.10;;;;;;12116581;28;20057;-76
2021/05/07 09:44:45;;;;;;;9.48;3.20;;;12.70;89.70;;;;;;12105219;28;20052;-76
2021/05/07 09:50:39;;;;;;;6.75;2.88;;;12.70;88.50;;;;;;12103813;28;20047;-77
2021/05/07 09:56:28;;;;;;;9.13;2.83;;;13.10;80.10;;;;;;12109991;27;20050;-77
2021/05/07 10:02:15;;;;;;;3.55;2.13;;;13.30;84.20;;;;;;12160111;28;20054;-77
2021/05/07 10:08:04;;;;;;;6.05;2.65;;;13.20;70.90;;;;;;12144292;28;20058;-75
2021/05/07 10:13:52;;;;;;;10.43;2.90;;;13.10;77.50;;;;;;12110663;28;20298;-76
2021/05/07 10:19:42;;;;;;;6.60;2.63;;;13.60;80.00;;;;;;12121072;28;20054;-76
2021/05/07 10:25:30;;;;;;;4.47;2.17;;;13.40;70.60;;;;;;12147089;28;20120;-75
2021/05/07 10:31:18;;;;;;;4.80;1.80;;;13.20;66.80;;;;;;12134869;28;20051;-76
2021/05/07 10:37:13;;;;;;;6.22;1.90;;;12.90;66.60;;;;;;12101594;28;20071;-77
2021/05/07 10:43:00;;;;;;;4.18;2.40;;;13.30;66.30;;;;;;12113019;28;20047;-76
2021/05/07 10:48:51;;;;;;;6.32;2.13;;;13.50;64.30;;;;;;12145440;28;20513;-77
2021/05/07 10:54:41;;;;;;;4.18;2.17;;;13.90;66.10;;;;;;12102278;28;20063;-77
2021/05/07 11:00:35;;;;;;;7.20;2.70;;;14.20;61.50;;;;;;12146502;27;20046;-76
2021/05/07 11:06:28;;;;;;;5.85;3.15;;;14.10;65.40;;;;;;12128661;27;20039;-77
2021/05/07 11:12:14;;;;;;;4.07;2.70;;;14.00;62.00;;;;;;12147480;27;20386;-76
2021/05/07 11:18:03;;;;;;;6.07;2.60;;;13.70;64.20;;;;;;12148430;27;20047;-76
2021/05/07 11:23:50;;;;;;;4.63;2.55;;;14.10;62.20;;;;;;12147832;28;20054;-76
2021/05/07 11:29:36;;;;;;;6.70;2.35;;;14.50;58.10;;;;;;12148733;27;20066;-77
2021/05/07 11:35:23;;;;;;;7.53;2.80;;;14.50;61.40;;;;;;12147082;28;20059;-76
2021/05/07 11:41:20;;;;;;;6.38;2.40;;;14.70;62.40;;;;;;12147710;28;20040;-77
2021/05/07 11:47:07;;;;;;;7.32;2.15;;;14.90;58.50;;;;;;12145512;28;20047;-76
2021/05/07 11:52:54;;;;;;;4.53;2.15;;;14.80;60.80;;;;;;12145641;28;20486;-77
2021/05/07 11:58:40;;;;;;;2.33;1.98;;;15.10;57.10;;;;;;12147747;28;20043;-77
2021/05/07 12:04:27;;;;;;;3.72;2.10;;;15.10;59.00;;;;;;12139514;27;20091;-77
2021/05/07 12:10:23;;;;;;;6.38;2.83;;;15.30;58.20;;;;;;12116715;28;20135;-77
2021/05/07 12:16:09;;;;;;;8.07;2.80;;;15.40;59.50;;;;;;12129501;28;20399;-78
2021/05/07 12:21:56;;;;;;;6.13;2.13;;;15.90;58.60;;;;;;12115091;28;20048;-78
2021/05/07 12:27:44;;;;;;;4.32;2.22;;;15.80;58.70;;;;;;12121389;28;20097;-73
2021/05/07 12:33:31;;;;;;;3.67;1.80;;;16.00;58.00;;;;;;12103527;28;20052;-74
2021/05/07 12:39:18;;;;;;;4.72;1.73;;;16.30;57.10;;;;;;12107616;28;20040;-74
2021/05/07 12:45:06;;;;;;;8.48;2.72;;;16.30;56.00;;;;;;12106244;28;20101;-74
2021/05/07 12:50:53;;;;;;;5.90;1.85;;;16.30;56.00;;;;;;12140558;27;20059;-74
2021/05/07 12:56:42;;;;;;;6.38;1.85;;;16.60;55.10;;;;;;12137219;27;20052;-74
2021/05/07 13:02:29;;;;;;;4.90;1.73;;;17.00;56.40;;;;;;12107715;28;20048;-75
2021/05/07 13:08:17;;;;;;;2.83;1.80;;;17.10;53.20;;;;;;12016502;28;20127;-77
2021/05/07 13:14:04;;;;;;;4.45;1.90;;;17.10;53.30;;;;;;12044129;28;20061;-77
2021/05/07 13:19:51;;;;;;;5.40;2.00;;;17.10;53.70;;;;;;12061380;28;20048;-78
2021/05/07 13:25:38;;;;;;;4.45;1.80;;;17.30;53.30;;;;;;12025939;28;20515;-77
2021/05/07 13:31:25;;;;;;;4.90;2.80;;;17.30;54.10;;;;;;12035246;28;20444;-77
2021/05/07 13:37:12;;;;;;;5.05;1.48;;;17.50;55.20;;;;;;12036721;28;20384;-78
2021/05/07 13:43:00;;;;;;;4.82;1.95;;;17.90;54.80;;;;;;12055769;28;20049;-78
2021/05/07 13:48:47;;;;;;;5.35;1.80;;;17.70;51.80;;;;;;12059064;28;20072;-77
2021/05/07 13:54:34;;;;;;;2.47;1.50;;;17.70;51.90;;;;;;12046743;28;20052;-77
2021/05/07 14:00:21;;;;;;;3.75;1.55;;;17.70;53.40;;;;;;12007894;28;20056;-77
2021/05/07 14:06:08;;;;;;;6.82;1.65;;;18.00;51.60;;;;;;12126470;28;20056;-77
2021/05/07 14:11:56;;;;;;;3.67;1.70;;;18.20;52.00;;;;;;12140627;28;20513;-78
2021/05/07 14:17:44;;;;;;;3.20;1.60;;;18.30;50.80;;;;;;12144494;28;20054;-77
2021/05/07 14:23:30;;;;;;;5.25;1.65;;;17.90;52.00;;;;;;12095322;28;20055;-77
2021/05/07 14:29:18;;;;;;;6.15;1.48;;;18.00;53.00;;;;;;12114545;28;20059;-77
2021/05/07 14:35:05;;;;;;;3.10;1.60;;;18.20;51.10;;;;;;12149438;27;20497;-77
2021/05/07 14:40:52;;;;;;;3.22;1.42;;;18.00;51.80;;;;;;12154855;28;20052;-77
2021/05/07 14:46:39;;;;;;;3.13;1.40;;;17.90;52.00;;;;;;12142185;28;20059;-74
2021/05/07 14:52:25;;;;;;;4.57;1.48;;;17.80;52.60;;;;;;12124010;27;20401;-78
2021/05/07 14:58:12;;;;;;;6.00;1.40;;;17.80;52.50;;;;;;12108895;28;20449;-78
2021/05/07 15:03:59;;;;;;;3.03;1.40;;;17.80;52.60;;;;;;12116296;28;20055;-77
2021/05/07 15:09:46;;;;;;;3.03;1.40;;;17.70;53.00;;;;;;12139596;28;20052;-76
2021/05/07 15:15:32;;;;;;;5.50;1.35;;;18.00;52.90;;;;;;12141783;28;20076;-77
2021/05/07 15:21:19;;;;;;;5.72;1.58;;;18.10;52.80;;;;;;12150941;27;20047;-77
2021/05/07 15:27:06;;;;;;;3.15;1.42;;;17.80;51.20;;;;;;12117971;28;20048;-77
2021/05/07 15:32:52;;;;;;;1.90;1.45;;;17.80;52.30;;;;;;12095220;28;20098;-73
2021/05/07 15:38:40;;;;;;;3.55;1.63;;;18.60;52.70;;;;;;12104155;28;20057;-74
2021/05/07 15:44:26;;;;;;;3.33;1.38;;;19.20;49.00;;;;;;12116761;28;20050;-74
2021/05/07 15:50:12;;;;;;;3.47;1.40;;;19.40;48.80;;;;;;12121507;28;20048;-73
2021/05/07 15:56:00;;;;;;;3.65;2.00;;;19.50;48.40;;;;;;12149215;28;20044;-74
2021/05/07 16:01:46;;;;;;;4.00;1.65;;;20.70;45.90;;;;;;12140392;28;20052;-74
2021/05/07 16:07:33;;;;;;;2.28;1.40;;;20.90;47.00;;;;;;12130105;27;20510;-75
2021/05/07 16:13:20;;;;;;;3.08;1.42;;;20.50;46.90;;;;;;12095861;28;20055;-74
2021/05/07 16:19:08;;;;;;;4.20;1.30;;;23.20;42.70;;;;;;12097349;28;20070;-78
2021/05/07 16:25:05;;;;;;;2.60;1.25;;;26.20;37.80;;;;;;12105017;28;20048;-78
2021/05/07 16:30:54;;;;;;;4.15;1.30;;;28.00;35.30;;;;;;12151206;28;20537;-78
2021/05/07 16:36:42;;;;;;;2.83;1.40;;;27.50;34.40;;;;;;12158879;27;20524;-77
2021/05/07 16:42:28;;;;;;;5.00;1.50;;;27.80;33.90;;;;;;12153802;28;20063;-78
2021/05/07 16:48:17;;;;;;;2.25;1.17;;;28.80;31.00;;;;;;12129510;28;20040;-79
2021/05/07 16:54:04;;;;;;;2.97;1.25;;;30.50;30.40;;;;;;12115380;27;20522;-73
2021/05/07 16:59:50;;;;;;;2.70;1.70;;;32.20;29.60;;;;;;12115958;27;20457;-74
2021/05/07 17:05:38;;;;;;;3.17;1.63;;;32.10;28.60;;;;;;12100084;28;20506;-74
2021/05/07 17:11:24;;;;;;;3.30;1.42;;;31.70;28.60;;;;;;12095391;28;20075;-74
2021/05/07 17:17:10;;;;;;;5.60;2.15;;;31.60;27.90;;;;;;12101075;28;20503;-73
2021/05/07 17:22:58;;;;;;;4.13;2.05;;;30.40;29.10;;;;;;12110329;28;20052;-75
2021/05/07 17:28:48;;;;;;;4.95;2.30;;;29.80;28.90;;;;;;12107610;28;20055;-73
2021/05/07 17:34:34;;;;;;;4.60;2.35;;;26.70;32.40;;;;;;12106967;28;20055;-74
2021/05/07 17:40:22;;;;;;;5.85;2.25;;;24.60;35.10;;;;;;12147960;28;20051;-73
2021/05/07 17:46:09;;;;;;;2.80;1.80;;;24.10;36.50;;;;;;12121211;28;20063;-74
2021/05/07 17:51:55;;;;;;;4.97;2.72;;;24.30;36.40;;;;;;12143983;27;20043;-73
2021/05/07 17:57:42;;;;;;;5.43;3.90;;;23.00;38.30;;;;;;12134706;27;20410;-73
2021/05/07 18:03:31;;;;;;;4.32;2.85;;;21.60;41.00;;;;;;12102823;28;20120;-73
2021/05/07 18:09:19;;;;;;;5.15;3.30;;;20.60;42.70;;;;;;12104301;28;20051;-74
2021/05/07 18:15:09;;;;;;;4.03;2.22;;;20.10;43.60;;;;;;12103290;28;20055;-74
2021/05/07 18:20:55;;;;;;;5.30;2.17;;;19.90;44.30;;;;;;12128338;28;20056;-78
2021/05/07 18:26:42;;;;;;;4.82;2.80;;;19.60;45.20;;;;;;12107580;28;20051;-73
2021/05/07 18:32:29;;;;;;;3.47;2.70;;;19.30;45.00;;;;;;12124274;28;20039;-74
2021/05/07 18:38:16;;;;;;;5.50;2.20;;;19.00;45.90;;;;;;12148388;28;20047;-73
2021/05/07 18:44:02;;;;;;;5.68;3.20;;;18.80;46.90;;;;;;12125489;28;20047;-74
2021/05/07 18:49:50;;;;;;;5.15;3.28;;;18.40;47.80;;;;;;12126517;28;20568;-74
2021/05/07 18:55:37;;;;;;;4.45;2.72;;;18.10;49.30;;;;;;12101664;28;20047;-74
2021/05/07 19:01:23;;;;;;;4.80;2.00;;;17.90;50.70;;;;;;12101703;27;20507;-74
2021/05/07 19:07:10;;;;;;;5.22;2.15;;;17.50;55.60;;;;;;12126480;27;20073;-74
2021/05/07 19:12:59;;;;;;;5.43;2.33;;;17.30;57.10;;;;;;12103406;28;20048;-73
2021/05/07 19:18:45;;;;;;;4.72;1.80;;;17.10;57.80;;;;;;12125523;28;20121;-74
2021/05/07 19:24:33;;;;;;;3.13;1.92;;;16.80;59.40;;;;;;12131186;27;20705;-73
2021/05/07 19:30:22;;;;;;;3.33;2.22;;;16.60;61.10;;;;;;12118790;28;20506;-74
2021/05/07 19:36:09;;;;;;;3.83;2.70;;;16.50;61.80;;;;;;12109598;28;20040;-76
2021/05/07 19:41:57;;;;;;;5.78;2.72;;;16.30;61.90;;;;;;12105865;28;20189;-73
2021/05/07 19:47:43;;;;;;;3.00;2.30;;;16.20;61.70;;;;;;12145654;28;20506;-74
2021/05/07 19:53:29;;;;;;;5.47;3.00;;;16.20;62.10;;;;;;12136995;28;20051;-73
2021/05/07 19:59:16;;;;;;;3.72;2.60;;;16.00;61.90;;;;;;12111786;28;20064;-74
2021/05/07 20:05:03;;;;;;;3.50;2.90;;;15.80;62.20;;;;;;12085175;28;20059;-74
2021/05/07 20:10:50;;;;;;;5.65;3.22;;;15.80;62.80;;;;;;12143208;28;20047;-74
2021/05/07 20:16:37;;;;;;;4.97;2.97;;;15.70;62.30;;;;;;12122497;28;20056;-73
2021/05/07 20:22:24;;;;;;;4.75;2.90;;;15.60;62.30;;;;;;12120302;28;20669;-77
2021/05/07 20:28:10;;;;;;;5.70;3.38;;;15.50;62.10;;;;;;12126825;28;20059;-78
2021/05/07 20:33:58;;;;;;;5.55;3.17;;;15.50;63.40;;;;;;12161973;28;20067;-78
2021/05/07 20:39:44;;;;;;;5.22;3.22;;;15.40;63.30;;;;;;12111985;28;20078;-77
2021/05/07 20:45:31;;;;;;;6.30;3.30;;;15.30;64.40;;;;;;12109924;27;20101;-73
2021/05/07 20:51:19;;;;;;;8.32;3.60;;;15.30;64.70;;;;;;12143583;28;20054;-73
2021/05/07 20:57:06;;;;;;;6.10;3.50;;;15.20;64.80;;;;;;12093467;28;20048;-73
2021/05/07 21:02:52;;;;;;;6.50;3.55;;;15.00;65.80;;;;;;12129098;27;20047;-73
2021/05/07 21:08:39;;;;;;;6.20;3.58;;;14.90;67.00;;;;;;12118224;28;20113;-72
2021/05/07 21:14:26;;;;;;;5.25;3.30;;;14.90;65.50;;;;;;12104062;28;20139;-75
2021/05/07 21:20:15;;;;;;;15.07;3.97;;;14.80;66.10;;;;;;12126966;27;20059;-74
2021/05/07 21:26:03;;;;;;;10.02;3.97;;;14.60;66.30;;;;;;12103795;28;20055;-74
2021/05/07 21:31:49;;;;;;;6.95;3.92;;;14.60;66.40;;;;;;12153871;28;20047;-74
2021/05/07 21:37:36;;;;;;;6.55;4.35;;;14.60;66.10;;;;;;12147721;27;20413;-73
2021/05/07 21:43:24;;;;;;;6.13;3.78;;;14.60;66.90;;;;;;12155353;27;20043;-73
2021/05/07 21:49:11;;;;;;;6.75;4.20;;;14.60;67.20;;;;;;12153052;28;20494;-75
2021/05/07 21:54:57;;;;;;;7.95;4.05;;;14.70;68.30;;;;;;12136377;27;20123;-74
2021/05/07 22:00:45;;;;;;;10.13;4.20;;;14.70;69.10;;;;;;12140603;28;20047;-74
2021/05/07 22:06:31;;;;;;;6.30;4.28;;;14.80;68.70;;;;;;12136026;28;20044;-73
2021/05/07 22:12:18;;;;;;;5.80;4.13;;;14.80;69.30;;;;;;12113170;27;20048;-74
2021/05/07 22:18:06;;;;;;;6.93;4.30;;;14.80;69.50;;;;;;12145552;27;20426;-74
2021/05/07 22:23:52;;;;;;;6.95;4.45;;;14.80;70.40;;;;;;12109547;28;20098;-74
2021/05/07 22:29:38;;;;;;;8.98;4.03;;;14.90;70.80;;;;;;12135328;27;20067;-74
2021/05/07 22:35:26;;;;;;;5.88;4.10;;;14.90;71.10;;;;;;12083698;28;20475;-74
2021/05/07 22:41:12;;;;;;;12.45;4.80;;;14.90;71.70;;;;;;12123065;28;20044;-72
2021/05/07 22:46:58;;;;;;;8.73;4.45;;;14.80;72.20;;;;;;12149466;28;20051;-72
2021/05/07 22:52:46;;;;;;;9.25;4.43;;;14.70;71.40;;;;;;12147869;28;20044;-73
2021/05/07 22:58:35;;;;;;;8.80;4.90;;;14.50;71.80;;;;;;12126556;27;20090;-79
2021/05/07 23:04:21;;;;;;;9.35;4.80;;;14.50;71.90;;;;;;12137999;28;20097;-77
2021/05/07 23:10:11;;;;;;;8.10;5.10;;;14.50;73.50;;;;;;12137631;27;20039;-77
2021/05/07 23:15:57;;;;;;;8.25;4.95;;;14.50;72.60;;;;;;12116847;28;20048;-77
2021/05/07 23:21:44;;;;;;;10.25;5.32;;;14.60;72.70;;;;;;12150779;27;20052;-77
2021/05/07 23:27:31;;;;;;;11.32;5.15;;;14.60;72.10;;;;;;12153182;27;20051;-78
2021/05/07 23:33:18;;;;;;;7.82;5.43;;;14.60;72.00;;;;;;12135908;28;20048;-78
2021/05/07 23:39:05;;;;;;;10.10;5.53;;;14.50;72.20;;;;;;12107780;28;20391;-78
2021/05/07 23:44:52;;;;;;;8.65;5.80;;;14.50;72.80;;;;;;12118321;28;20052;-78
2021/05/07 23:50:38;;;;;;;8.55;5.35;;;14.50;74.00;;;;;;12150177;28;20648;-78
2021/05/07 23:56:26;;;;;;;10.93;5.80;;;14.50;75.00;;;;;;12105118;28;20113;-76
